Weather reports worldwide

Advertisment
Huercal Overa, Spain (8428): temperature & dewpoint: 06.12.2018 00:00:00 - 12.12.2018 00:00:00 (CET)Huercal Overa, Spain (8428): wind speed & gusts: 06.12.2018 00:00:00 - 12.12.2018 00:00:00 (CET)Huercal Overa, Spain (8428): wind direction: 06.12.2018 00:00:00 - 12.12.2018 00:00:00 (CET)Huercal Overa, Spain (8428): reduced air pressure: 06.12.2018 00:00:00 - 12.12.2018 00:00:00 (CET)Huercal Overa, Spain (8428): precipitation: 06.12.2018 00:00:00 - 12.12.2018 00:00:00 (CET)
Date & Time tt [°C] td [°C] ff [km/h] ff [kn] fx [km/h] fx [kn] dd ppp [hPa] rr [mm]
12.12.2018 00:00:00 - - - - - - - - -
11.12.2018 23:00:00 8,7 5,9 2 1 5 3 ESE 1022,9 0,0
11.12.2018 22:00:00 9,4 6,5 1 0 5 3 NNW 1022,5 0,0
11.12.2018 21:00:00 9,5 6,5 2 1 6 3 ENE 1022,5 0,0
11.12.2018 20:00:00 10,6 7,7 0 0 8 5 NNW 1022,5 0,0
11.12.2018 19:00:00 11,3 8,1 4 2 10 6 ENE 1022,3 -
11.12.2018 18:00:00 12,2 8,8 5 3 13 7 E 1021,9 0,0
11.12.2018 17:00:00 14,4 8,8 1 1 10 5 ENE 1021,5 0,0
11.12.2018 16:00:00 15,5 7,7 5 3 14 8 SSW 1021,3 0,0
11.12.2018 15:00:00 16,3 5,8 7 4 13 7 SSW 1021,1 0,0
11.12.2018 14:00:00 16,4 2,5 6 3 14 7 SSW 1021,5 0,0
11.12.2018 13:00:00 17,0 2,3 4 2 11 6 SW 1022,4 -
11.12.2018 12:00:00 15,3 1,1 8 4 13 7 SW 1023,4 0,0
11.12.2018 11:00:00 15,4 2,9 0 0 2 1 N 1024,2 0,0
11.12.2018 10:00:00 12,3 2,7 1 0 3 2 S 1024,8 0,0
11.12.2018 09:00:00 8,3 5,6 0 0 1 1 N 1025,2 0,0
11.12.2018 08:00:00 4,6 2,1 0 0 3 2 E 1024,9 0,0
11.12.2018 07:00:00 4,4 1,9 1 0 6 3 ENE 1025,2 -
11.12.2018 06:00:00 5,0 2,5 3 1 5 3 ENE 1025,3 0,0
11.12.2018 05:00:00 6,0 3,4 0 0 3 2 E 1025,5 0,0
11.12.2018 04:00:00 6,6 4,1 0 0 4 2 W 1026,2 0,0
11.12.2018 03:00:00 7,9 5,3 1 1 4 2 WNW 1026,5 0,0
11.12.2018 02:00:00 9,3 6,5 0 0 5 3 E 1026,3 0,0
11.12.2018 01:00:00 9,7 7,0 1 0 4 2 ENE 1026,9 -
11.12.2018 00:00:00 9,5 6,7 0 0 4 2 ESE 1027,5 0,0
10.12.2018 23:00:00 9,0 6,2 1 0 6 4 E 1027,7 0,0
10.12.2018 22:00:00 9,9 7,0 1 1 5 3 E 1027,8 0,0
10.12.2018 21:00:00 10,5 7,6 1 0 6 3 E 1027,7 0,0
10.12.2018 20:00:00 12,0 9,0 0 0 4 2 S 1027,6 0,0
10.12.2018 19:00:00 12,9 9,7 3 1 5 3 WSW 1027,5 -
10.12.2018 18:00:00 13,3 10,0 1 1 18 10 SSW 1027,0 0,0
10.12.2018 17:00:00 14,1 10,3 8 4 21 11 SSW 1027,0 0,0
10.12.2018 16:00:00 15,0 10,6 12 6 24 13 SSW 1026,8 0,0
10.12.2018 15:00:00 17,0 7,1 11 6 21 11 SSW 1026,5 0,0
10.12.2018 14:00:00 18,5 -2,5 9 5 16 9 SW 1026,7 0,0
10.12.2018 13:00:00 19,0 -4,5 3 1 14 8 S 1027,4 -
10.12.2018 12:00:00 19,4 -4,2 4 2 16 9 ENE 1028,2 0,0
10.12.2018 11:00:00 17,1 -4,2 9 5 17 9 ESE 1029,9 0,0
10.12.2018 10:00:00 15,1 1,9 1 0 6 3 ESE 1029,0 0,0
10.12.2018 09:00:00 11,1 2,7 1 0 8 4 E 1029,5 0,0
10.12.2018 08:00:00 7,1 2,1 0 0 5 3 E 1029,3 0,0
10.12.2018 07:00:00 6,9 2,3 2 1 5 3 ENE 1029,1 -
10.12.2018 06:00:00 9,7 2,1 1 1 7 4 SSW 1028,4 0,0
10.12.2018 05:00:00 10,2 2,3 2 1 8 5 WNW 1028,3 0,0
10.12.2018 04:00:00 9,0 3,2 1 0 5 3 NNW 1028,9 0,0
10.12.2018 03:00:00 9,3 3,9 0 0 10 5 ESE 1029,2 0,0
10.12.2018 02:00:00 9,1 3,0 3 1 10 5 E 1029,1 0,0
10.12.2018 01:00:00 10,7 3,9 1 1 8 4 E 1029,1 -
10.12.2018 00:00:00 12,1 3,0 1 1 9 5 NNE 1029,3 0,0
09.12.2018 23:00:00 10,9 3,4 4 2 8 5 W 1029,2 0,0
09.12.2018 22:00:00 11,2 5,8 1 1 8 5 ENE 1029,3 0,0
09.12.2018 21:00:00 11,1 5,6 4 2 6 4 E 1029,0 0,0
09.12.2018 20:00:00 13,4 7,0 1 1 5 3 ENE 1028,4 0,0
09.12.2018 19:00:00 14,2 6,5 0 0 5 3 N 1028,0 -
09.12.2018 18:00:00 15,8 5,9 0 0 6 4 N 1027,3 0,0
09.12.2018 17:00:00 19,8 4,6 3 2 11 6 E 1026,5 0,0
09.12.2018 16:00:00 22,4 3,4 3 1 9 5 E 1025,9 0,0
09.12.2018 15:00:00 22,8 0,6 3 2 11 6 SSW 1025,3 0,0
09.12.2018 14:00:00 22,7 -0,7 4 2 10 5 SSW 1025,9 0,0
09.12.2018 13:00:00 21,5 1,3 2 1 6 3 SSE 1026,9 -
09.12.2018 12:00:00 18,8 1,3 1 0 3 2 SSW 1028,0 0,0
09.12.2018 11:00:00 15,2 3,6 1 0 3 2 E 1029,5 0,0
09.12.2018 10:00:00 11,9 2,7 0 0 4 2 E 1030,5 0,0
09.12.2018 09:00:00 8,9 3,6 3 1 6 3 ENE 1030,5 0,0
09.12.2018 08:00:00 6,1 3,2 1 1 4 2 ENE 1030,6 0,0
09.12.2018 07:00:00 6,3 3,4 0 0 3 1 WSW 1030,7 -
09.12.2018 06:00:00 6,4 3,8 2 1 5 3 NNW 1030,3 0,0
09.12.2018 05:00:00 6,3 3,6 0 0 6 3 W 1030,3 0,0
09.12.2018 04:00:00 6,2 3,6 2 1 4 2 ENE 1030,5 0,0
09.12.2018 03:00:00 6,9 4,1 0 0 4 2 E 1030,5 0,0
09.12.2018 02:00:00 7,2 4,5 2 1 5 3 ENE 1030,6 0,0
09.12.2018 01:00:00 8,1 5,0 0 0 5 3 N 1030,7 -
09.12.2018 00:00:00 8,6 5,5 1 1 7 4 WNW 1030,9 0,0
08.12.2018 23:00:00 8,7 5,6 4 2 7 4 ENE 1031,1 0,0
08.12.2018 22:00:00 9,9 6,2 1 1 4 2 NNW 1030,8 0,0
08.12.2018 21:00:00 9,8 6,1 1 1 7 4 NE 1030,6 0,0
08.12.2018 20:00:00 11,3 6,7 4 2 7 4 NE 1030,0 0,0
08.12.2018 19:00:00 12,3 6,8 0 0 6 3 E 1029,5 -
08.12.2018 18:00:00 13,8 6,1 4 2 13 7 SW 1028,2 0,0
08.12.2018 17:00:00 15,4 5,9 5 3 14 7 SW 1027,5 0,0
08.12.2018 16:00:00 16,3 5,6 9 5 18 10 SW 1027,0 0,0
08.12.2018 15:00:00 17,6 3,8 9 5 14 8 SSW 1026,3 0,0
08.12.2018 14:00:00 19,6 -1,0 6 3 19 10 ESE 1026,1 0,0
08.12.2018 13:00:00 19,5 -1,7 5 3 16 9 E 1026,6 -
08.12.2018 12:00:00 20,9 -1,0 0 0 0 0 N 1026,8 0,0
08.12.2018 11:00:00 19,6 0,0 0 0 0 0 N 1027,3 0,0
08.12.2018 10:00:00 16,6 -1,0 0 0 0 0 N 1027,4 0,0
08.12.2018 09:00:00 10,9 0,0 0 0 1 1 NE 1028,1 0,0
08.12.2018 08:00:00 9,0 -1,2 0 0 8 5 N 1027,7 0,0
08.12.2018 07:00:00 8,1 -1,0 1 1 14 8 ENE 1027,1 -
08.12.2018 06:00:00 7,1 -0,3 1 0 9 5 ENE 1026,1 0,0
08.12.2018 05:00:00 7,8 0,2 5 3 11 6 E 1025,6 0,0
08.12.2018 04:00:00 - - 4 2 10 6 E - 0,0
08.12.2018 03:00:00 8,2 0,4 3 1 9 5 S 1026,0 0,0
08.12.2018 02:00:00 8,1 1,7 3 2 10 5 E 1026,1 0,0
08.12.2018 01:00:00 9,2 3,0 0 0 5 3 WSW 1026,3 -
08.12.2018 00:00:00 8,0 5,3 2 1 8 4 NE 1026,7 0,0
07.12.2018 23:00:00 7,8 5,3 4 2 7 4 E 1026,8 0,0
07.12.2018 22:00:00 8,4 5,8 2 1 7 4 ENE 1026,8 0,0
07.12.2018 21:00:00 10,2 7,6 2 1 6 3 W 1026,7 0,0
07.12.2018 20:00:00 11,4 8,8 1 1 6 3 NE 1026,6 0,0
07.12.2018 19:00:00 11,6 8,8 3 2 7 4 NE 1026,4 -
07.12.2018 18:00:00 12,8 9,9 3 2 10 5 W 1026,0 0,0
07.12.2018 17:00:00 14,5 10,5 6 3 14 8 SSW 1025,8 0,0
07.12.2018 16:00:00 16,7 8,1 8 4 15 8 SW 1025,4 0,0
07.12.2018 15:00:00 17,5 6,1 9 5 14 8 SSW 1025,0 0,0
07.12.2018 14:00:00 18,7 3,2 0 0 0 0 N 1025,0 0,0
07.12.2018 13:00:00 17,7 2,1 0 0 0 0 N 1025,9 -
07.12.2018 12:00:00 19,1 2,5 0 0 0 0 N 1026,5 0,0
07.12.2018 11:00:00 17,8 3,2 0 0 0 0 N 1027,2 0,0
07.12.2018 10:00:00 13,5 3,6 0 0 0 0 N 1027,8 0,0
07.12.2018 09:00:00 10,6 4,3 0 0 3 1 N 1028,4 0,0
07.12.2018 08:00:00 6,2 3,8 1 1 3 2 E 1028,2 0,0
07.12.2018 07:00:00 6,1 3,6 2 1 5 3 E 1027,8 -
07.12.2018 06:00:00 7,1 4,5 0 0 3 2 N 1027,5 0,0
07.12.2018 05:00:00 6,6 4,1 1 0 5 3 N 1027,4 0,0
07.12.2018 04:00:00 7,1 4,5 1 1 4 2 E 1027,7 0,0
07.12.2018 03:00:00 7,6 5,1 1 0 4 2 ENE 1027,7 0,0
07.12.2018 02:00:00 7,6 5,1 1 1 8 4 NW 1027,6 0,0
07.12.2018 01:00:00 8,1 5,0 3 1 7 4 ENE 1028,0 -
07.12.2018 00:00:00 8,9 5,6 2 1 6 3 NE 1028,5 0,0
06.12.2018 23:00:00 10,3 6,2 0 0 4 2 W 1028,5 0,0
06.12.2018 22:00:00 10,9 6,4 0 0 5 3 WNW 1028,2 0,0
06.12.2018 21:00:00 11,2 6,1 0 0 6 3 E 1028,0 0,0
06.12.2018 20:00:00 12,6 6,4 2 1 4 2 E 1027,9 0,0
06.12.2018 19:00:00 14,8 6,5 2 1 6 4 NW 1027,4 -
06.12.2018 18:00:00 16,2 5,8 1 0 8 4 W 1026,8 0,0
06.12.2018 17:00:00 19,1 5,1 3 2 11 6 SW 1025,6 0,0
06.12.2018 16:00:00 19,9 2,3 9 5 16 9 SSW 1025,2 0,0
06.12.2018 15:00:00 21,4 0,0 10 6 19 11 SSW 1024,3 0,0
06.12.2018 14:00:00 23,9 0,2 6 3 10 6 S 1024,3 0,0
06.12.2018 13:00:00 24,4 0,6 2 1 8 4 SSE 1024,9 -
06.12.2018 12:00:00 24,4 2,5 0 0 7 4 ENE 1025,2 0,0
06.12.2018 11:00:00 20,0 1,9 0 0 3 2 N 1026,5 0,0
06.12.2018 10:00:00 16,4 2,7 0 0 8 4 E 1026,8 0,0
06.12.2018 09:00:00 12,2 1,3 3 1 6 3 WSW 1027,6 0,0
06.12.2018 08:00:00 9,6 2,3 1 1 11 6 NNE 1027,5 0,0
06.12.2018 07:00:00 9,6 2,3 4 2 9 5 NE 1026,6 -
06.12.2018 06:00:00 8,2 3,2 4 2 9 5 ENE 1026,0 0,0
06.12.2018 05:00:00 8,6 3,6 2 1 7 4 ENE 1026,2 0,0
06.12.2018 04:00:00 9,6 4,8 2 1 6 3 NNE 1026,3 0,0
06.12.2018 03:00:00 8,7 4,6 3 2 8 4 ENE 1026,6 0,0
06.12.2018 02:00:00 9,7 5,5 0 0 5 3 SSE 1026,4 0,0
06.12.2018 01:00:00 9,7 6,5 4 2 6 3 ENE 1026,5 -
06.12.2018 00:00:00 9,9 6,5 2 1 8 4 ENE 1026,7 0,0

tt = temperature
td = dewpoint
ff = wind speed
fx = gusts
dd = wind direction
ppp = reduced air pressure
rr = precipitation

Next stations